sensor_id;sensor_type;location;lat;lon;timestamp;pressure;altitude;pressure_sealevel;temperature;humidity
12178;BME280;6152;48.728;9.256;2022-11-22T00:01:03;95136.91;;;4.43;100.00
12178;BME280;6152;48.728;9.256;2022-11-22T00:03:29;95135.16;;;4.44;100.00
12178;BME280;6152;48.728;9.256;2022-11-22T00:05:55;95134.13;;;4.46;100.00
12178;BME280;6152;48.728;9.256;2022-11-22T00:08:21;95135.56;;;4.50;100.00
12178;BME280;6152;48.728;9.256;2022-11-22T00:10:48;95128.53;;;4.52;100.00
12178;BME280;6152;48.728;9.256;2022-11-22T00:13:16;95125.66;;;4.57;100.00
12178;BME280;6152;48.728;9.256;2022-11-22T00:15:42;95123.69;;;4.61;100.00
12178;BME280;6152;48.728;9.256;2022-11-22T00:18:09;95122.03;;;4.59;100.00
12178;BME280;6152;48.728;9.256;2022-11-22T00:20:35;95121.22;;;4.59;100.00
12178;BME280;6152;48.728;9.256;2022-11-22T00:23:02;95121.44;;;4.56;100.00
12178;BME280;6152;48.728;9.256;2022-11-22T00:25:28;95109.59;;;4.53;100.00
12178;BME280;6152;48.728;9.256;2022-11-22T00:27:54;95114.13;;;4.50;100.00
12178;BME280;6152;48.728;9.256;2022-11-22T00:30:20;95114.97;;;4.50;100.00
12178;BME280;6152;48.728;9.256;2022-11-22T00:32:47;95111.66;;;4.48;100.00
12178;BME280;6152;48.728;9.256;2022-11-22T00:35:13;95111.25;;;4.42;100.00
12178;BME280;6152;48.728;9.256;2022-11-22T00:37:39;95117.22;;;4.42;100.00
12178;BME280;6152;48.728;9.256;2022-11-22T00:40:06;95118.66;;;4.46;100.00
12178;BME280;6152;48.728;9.256;2022-11-22T00:42:32;95116.69;;;4.50;100.00
12178;BME280;6152;48.728;9.256;2022-11-22T00:44:58;95118.25;;;4.52;100.00
12178;BME280;6152;48.728;9.256;2022-11-22T00:47:24;95116.69;;;4.50;100.00
12178;BME280;6152;48.728;9.256;2022-11-22T00:49:50;95123.81;;;4.46;100.00
12178;BME280;6152;48.728;9.256;2022-11-22T00:52:16;95121.34;;;4.45;100.00
12178;BME280;6152;48.728;9.256;2022-11-22T00:54:43;95128.97;;;4.46;100.00
12178;BME280;6152;48.728;9.256;2022-11-22T00:57:10;95137.00;;;4.42;100.00
12178;BME280;6152;48.728;9.256;2022-11-22T00:59:36;95137.22;;;4.39;100.00
12178;BME280;6152;48.728;9.256;2022-11-22T01:02:02;95138.25;;;4.36;100.00
12178;BME280;6152;48.728;9.256;2022-11-22T01:04:28;95140.53;;;4.41;100.00
12178;BME280;6152;48.728;9.256;2022-11-22T01:06:55;95155.13;;;4.40;100.00
12178;BME280;6152;48.728;9.256;2022-11-22T01:09:22;95157.94;;;4.37;100.00
12178;BME280;6152;48.728;9.256;2022-11-22T01:11:49;95168.22;;;4.37;100.00
12178;BME280;6152;48.728;9.256;2022-11-22T01:14:16;95166.44;;;4.38;100.00
12178;BME280;6152;48.728;9.256;2022-11-22T01:16:42;95174.09;;;4.39;100.00
12178;BME280;6152;48.728;9.256;2022-11-22T01:19:09;95166.34;;;4.39;100.00
12178;BME280;6152;48.728;9.256;2022-11-22T01:21:35;95171.50;;;4.39;100.00
12178;BME280;6152;48.728;9.256;2022-11-22T01:24:01;95162.88;;;4.40;100.00
12178;BME280;6152;48.728;9.256;2022-11-22T01:26:28;95161.72;;;4.44;100.00
12178;BME280;6152;48.728;9.256;2022-11-22T01:28:54;95165.22;;;4.43;100.00
12178;BME280;6152;48.728;9.256;2022-11-22T01:31:20;95176.34;;;4.44;100.00
12178;BME280;6152;48.728;9.256;2022-11-22T01:33:46;95178.19;;;4.42;100.00
12178;BME280;6152;48.728;9.256;2022-11-22T01:36:12;95170.59;;;4.40;100.00
12178;BME280;6152;48.728;9.256;2022-11-22T01:38:38;95177.19;;;4.44;100.00
12178;BME280;6152;48.728;9.256;2022-11-22T01:41:04;95186.31;;;4.48;100.00
12178;BME280;6152;48.728;9.256;2022-11-22T01:43:30;95173.66;;;4.58;100.00
12178;BME280;6152;48.728;9.256;2022-11-22T01:45:59;95172.84;;;4.57;100.00
12178;BME280;6152;48.728;9.256;2022-11-22T01:51:36;95175.69;;;4.66;100.00
12178;BME280;6152;48.728;9.256;2022-11-22T01:54:08;95172.00;;;4.70;100.00
12178;BME280;6152;48.728;9.256;2022-11-22T01:56:36;95176.13;;;4.72;100.00
12178;BME280;6152;48.728;9.256;2022-11-22T01:59:08;95173.44;;;4.74;100.00
12178;BME280;6152;48.728;9.256;2022-11-22T02:01:36;95179.31;;;4.76;100.00
12178;BME280;6152;48.728;9.256;2022-11-22T02:04:03;95178.38;;;4.77;100.00
12178;BME280;6152;48.728;9.256;2022-11-22T02:06:50;95180.03;;;4.78;100.00
12178;BME280;6152;48.728;9.256;2022-11-22T02:09:18;95189.50;;;4.77;100.00
12178;BME280;6152;48.728;9.256;2022-11-22T02:11:50;95190.13;;;4.81;100.00
12178;BME280;6152;48.728;9.256;2022-11-22T02:14:20;95183.09;;;4.83;100.00
12178;BME280;6152;48.728;9.256;2022-11-22T02:16:48;95188.78;;;4.88;100.00
12178;BME280;6152;48.728;9.256;2022-11-22T02:19:30;95189.69;;;4.87;100.00
12178;BME280;6152;48.728;9.256;2022-11-22T02:22:04;95182.06;;;4.85;100.00
12178;BME280;6152;48.728;9.256;2022-11-22T02:24:38;95188.78;;;4.88;100.00
12178;BME280;6152;48.728;9.256;2022-11-22T02:27:07;95196.28;;;4.91;100.00
12178;BME280;6152;48.728;9.256;2022-11-22T02:29:33;95203.19;;;4.90;100.00
12178;BME280;6152;48.728;9.256;2022-11-22T02:32:00;95204.94;;;4.90;100.00
12178;BME280;6152;48.728;9.256;2022-11-22T02:34:26;95213.19;;;4.95;100.00
12178;BME280;6152;48.728;9.256;2022-11-22T02:36:53;95209.69;;;4.96;100.00
12178;BME280;6152;48.728;9.256;2022-11-22T02:39:23;95217.28;;;4.97;100.00
12178;BME280;6152;48.728;9.256;2022-11-22T02:41:51;95207.72;;;4.99;100.00
12178;BME280;6152;48.728;9.256;2022-11-22T02:44:19;95211.09;;;5.00;100.00
12178;BME280;6152;48.728;9.256;2022-11-22T02:46:53;95209.47;;;4.99;100.00
12178;BME280;6152;48.728;9.256;2022-11-22T02:49:22;95203.50;;;4.98;100.00
12178;BME280;6152;48.728;9.256;2022-11-22T02:51:50;95201.53;;;5.02;100.00
12178;BME280;6152;48.728;9.256;2022-11-22T02:54:17;95206.56;;;5.03;100.00
12178;BME280;6152;48.728;9.256;2022-11-22T02:56:44;95203.06;;;5.04;100.00
12178;BME280;6152;48.728;9.256;2022-11-22T02:59:10;95202.34;;;5.02;100.00
12178;BME280;6152;48.728;9.256;2022-11-22T03:01:36;95211.41;;;5.08;100.00
12178;BME280;6152;48.728;9.256;2022-11-22T03:04:03;95212.53;;;5.04;100.00
12178;BME280;6152;48.728;9.256;2022-11-22T03:06:29;95214.41;;;5.02;100.00
12178;BME280;6152;48.728;9.256;2022-11-22T03:08:55;95223.06;;;5.01;100.00
12178;BME280;6152;48.728;9.256;2022-11-22T03:11:22;95221.53;;;4.98;100.00
12178;BME280;6152;48.728;9.256;2022-11-22T03:13:48;95224.09;;;4.98;100.00
12178;BME280;6152;48.728;9.256;2022-11-22T03:16:14;95232.16;;;4.94;100.00
12178;BME280;6152;48.728;9.256;2022-11-22T03:18:40;95224.75;;;4.89;100.00
12178;BME280;6152;48.728;9.256;2022-11-22T03:21:08;95225.75;;;4.87;100.00
12178;BME280;6152;48.728;9.256;2022-11-22T03:23:35;95225.75;;;4.87;100.00
12178;BME280;6152;48.728;9.256;2022-11-22T03:26:07;95233.28;;;4.90;100.00
12178;BME280;6152;48.728;9.256;2022-11-22T03:28:33;95228.03;;;4.91;100.00
12178;BME280;6152;48.728;9.256;2022-11-22T03:31:00;95230.00;;;4.88;100.00
12178;BME280;6152;48.728;9.256;2022-11-22T03:33:26;95234.44;;;4.86;100.00
12178;BME280;6152;48.728;9.256;2022-11-22T03:35:56;95235.25;;;4.86;100.00
12178;BME280;6152;48.728;9.256;2022-11-22T03:38:22;95234.44;;;4.86;100.00
12178;BME280;6152;48.728;9.256;2022-11-22T03:40:48;95241.22;;;4.87;100.00
12178;BME280;6152;48.728;9.256;2022-11-22T03:43:14;95234.31;;;4.87;100.00
12178;BME280;6152;48.728;9.256;2022-11-22T03:45:44;95227.41;;;4.88;100.00
12178;BME280;6152;48.728;9.256;2022-11-22T03:48:11;95226.50;;;4.89;100.00
12178;BME280;6152;48.728;9.256;2022-11-22T03:50:37;95229.38;;;4.84;100.00
12178;BME280;6152;48.728;9.256;2022-11-22T03:53:03;95224.13;;;4.86;100.00
12178;BME280;6152;48.728;9.256;2022-11-22T03:55:30;95226.72;;;4.86;100.00
12178;BME280;6152;48.728;9.256;2022-11-22T03:57:56;95228.66;;;4.82;100.00
12178;BME280;6152;48.728;9.256;2022-11-22T04:00:22;95233.91;;;4.81;100.00
12178;BME280;6152;48.728;9.256;2022-11-22T04:02:48;95233.22;;;4.79;100.00
12178;BME280;6152;48.728;9.256;2022-11-22T04:05:14;95229.91;;;4.77;100.00
12178;BME280;6152;48.728;9.256;2022-11-22T04:07:41;95235.06;;;4.77;100.00
12178;BME280;6152;48.728;9.256;2022-11-22T04:10:07;95239.38;;;4.76;100.00
12178;BME280;6152;48.728;9.256;2022-11-22T04:12:33;95237.75;;;4.75;100.00
12178;BME280;6152;48.728;9.256;2022-11-22T04:15:00;95233.59;;;4.73;100.00
12178;BME280;6152;48.728;9.256;2022-11-22T04:17:38;95238.13;;;4.69;100.00
12178;BME280;6152;48.728;9.256;2022-11-22T04:20:20;95236.59;;;4.67;100.00
12178;BME280;6152;48.728;9.256;2022-11-22T04:23:10;95241.75;;;4.67;100.00
12178;BME280;6152;48.728;9.256;2022-11-22T04:25:39;95246.19;;;4.65;100.00
12178;BME280;6152;48.728;9.256;2022-11-22T04:28:07;95247.31;;;4.61;100.00
12178;BME280;6152;48.728;9.256;2022-11-22T04:30:34;95248.44;;;4.56;100.00
12178;BME280;6152;48.728;9.256;2022-11-22T04:33:19;95248.66;;;4.53;100.00
12178;BME280;6152;48.728;9.256;2022-11-22T04:35:46;95249.06;;;4.47;100.00
12178;BME280;6152;48.728;9.256;2022-11-22T04:38:13;95252.78;;;4.43;100.00
12178;BME280;6152;48.728;9.256;2022-11-22T04:40:39;95248.75;;;4.39;100.00
12178;BME280;6152;48.728;9.256;2022-11-22T04:43:06;95251.53;;;4.36;100.00
12178;BME280;6152;48.728;9.256;2022-11-22T04:45:52;95250.91;;;4.33;100.00
12178;BME280;6152;48.728;9.256;2022-11-22T04:48:19;95248.63;;;4.28;100.00
12178;BME280;6152;48.728;9.256;2022-11-22T04:50:45;95243.88;;;4.22;100.00
12178;BME280;6152;48.728;9.256;2022-11-22T04:53:30;95248.63;;;4.16;100.00
12178;BME280;6152;48.728;9.256;2022-11-22T04:55:56;95245.50;;;4.11;100.00
12178;BME280;6152;48.728;9.256;2022-11-22T04:58:22;95244.88;;;4.07;100.00
12178;BME280;6152;48.728;9.256;2022-11-22T05:00:49;95253.75;;;4.03;100.00
12178;BME280;6152;48.728;9.256;2022-11-22T05:03:16;95236.03;;;3.98;100.00
12178;BME280;6152;48.728;9.256;2022-11-22T05:05:43;95247.44;;;3.94;100.00
12178;BME280;6152;48.728;9.256;2022-11-22T05:08:10;95243.31;;;3.92;100.00
12178;BME280;6152;48.728;9.256;2022-11-22T05:10:37;95256.38;;;3.89;100.00
12178;BME280;6152;48.728;9.256;2022-11-22T05:13:23;95259.16;;;3.86;100.00
12178;BME280;6152;48.728;9.256;2022-11-22T05:15:50;95254.19;;;3.83;100.00
12178;BME280;6152;48.728;9.256;2022-11-22T05:18:17;95263.75;;;3.81;100.00
12178;BME280;6152;48.728;9.256;2022-11-22T05:20:44;95264.78;;;3.78;100.00
12178;BME280;6152;48.728;9.256;2022-11-22T05:23:10;95273.31;;;3.79;100.00
12178;BME280;6152;48.728;9.256;2022-11-22T05:25:55;95275.91;;;3.79;100.00
12178;BME280;6152;48.728;9.256;2022-11-22T05:28:21;95279.28;;;3.79;100.00
12178;BME280;6152;48.728;9.256;2022-11-22T05:30:48;95277.53;;;3.80;100.00
12178;BME280;6152;48.728;9.256;2022-11-22T05:33:14;95275.91;;;3.79;100.00
12178;BME280;6152;48.728;9.256;2022-11-22T05:35:40;95277.53;;;3.80;100.00
12178;BME280;6152;48.728;9.256;2022-11-22T05:38:06;95279.19;;;3.81;100.00
12178;BME280;6152;48.728;9.256;2022-11-22T05:40:32;95282.66;;;3.80;100.00
12178;BME280;6152;48.728;9.256;2022-11-22T05:42:58;95286.91;;;3.81;100.00
12178;BME280;6152;48.728;9.256;2022-11-22T05:45:24;95283.31;;;3.83;100.00
12178;BME280;6152;48.728;9.256;2022-11-22T05:47:51;95282.47;;;3.83;100.00
12178;BME280;6152;48.728;9.256;2022-11-22T05:50:17;95285.78;;;3.85;100.00
12178;BME280;6152;48.728;9.256;2022-11-22T05:52:43;95282.19;;;3.87;100.00
12178;BME280;6152;48.728;9.256;2022-11-22T05:55:09;95285.41;;;3.91;100.00
12178;BME280;6152;48.728;9.256;2022-11-22T05:57:35;95285.94;;;3.96;100.00
12178;BME280;6152;48.728;9.256;2022-11-22T06:00:02;95291.59;;;4.01;100.00
12178;BME280;6152;48.728;9.256;2022-11-22T06:02:30;95286.16;;;4.05;100.00
12178;BME280;6152;48.728;9.256;2022-11-22T06:04:56;95287.50;;;4.11;100.00
12178;BME280;6152;48.728;9.256;2022-11-22T06:07:23;95294.13;;;4.15;100.00
12178;BME280;6152;48.728;9.256;2022-11-22T06:09:49;95300.91;;;4.16;100.00
12178;BME280;6152;48.728;9.256;2022-11-22T06:12:15;95295.66;;;4.18;100.00
12178;BME280;6152;48.728;9.256;2022-11-22T06:14:41;95308.53;;;4.18;100.00
12178;BME280;6152;48.728;9.256;2022-11-22T06:17:07;95314.50;;;4.18;100.00
12178;BME280;6152;48.728;9.256;2022-11-22T06:19:33;95313.47;;;4.21;100.00
12178;BME280;6152;48.728;9.256;2022-11-22T06:21:59;95312.69;;;4.20;100.00
12178;BME280;6152;48.728;9.256;2022-11-22T06:24:25;95311.00;;;4.19;100.00
12178;BME280;6152;48.728;9.256;2022-11-22T06:26:51;95316.16;;;4.19;100.00
12178;BME280;6152;48.728;9.256;2022-11-22T06:29:17;95329.94;;;4.18;100.00
12178;BME280;6152;48.728;9.256;2022-11-22T06:31:43;95322.22;;;4.18;100.00
12178;BME280;6152;48.728;9.256;2022-11-22T06:34:11;95324.81;;;4.18;100.00
12178;BME280;6152;48.728;9.256;2022-11-22T06:36:38;95325.75;;;4.17;100.00
12178;BME280;6152;48.728;9.256;2022-11-22T06:39:05;95334.25;;;4.18;100.00
12178;BME280;6152;48.728;9.256;2022-11-22T06:41:34;95342.63;;;4.21;100.00
12178;BME280;6152;48.728;9.256;2022-11-22T06:44:04;95355.28;;;4.24;100.00
12178;BME280;6152;48.728;9.256;2022-11-22T06:46:31;95355.13;;;4.27;100.00
12178;BME280;6152;48.728;9.256;2022-11-22T06:48:57;95353.47;;;4.26;100.00
12178;BME280;6152;48.728;9.256;2022-11-22T06:51:26;95364.47;;;4.28;100.00
12178;BME280;6152;48.728;9.256;2022-11-22T06:53:54;95373.84;;;4.29;100.00
12178;BME280;6152;48.728;9.256;2022-11-22T06:56:43;95377.97;;;4.32;100.00
12178;BME280;6152;48.728;9.256;2022-11-22T06:59:09;95385.63;;;4.33;100.00
12178;BME280;6152;48.728;9.256;2022-11-22T07:01:36;95398.38;;;4.35;100.00
12178;BME280;6152;48.728;9.256;2022-11-22T07:04:03;95402.59;;;4.36;100.00
12178;BME280;6152;48.728;9.256;2022-11-22T07:06:31;95400.03;;;4.36;100.00
12178;BME280;6152;48.728;9.256;2022-11-22T07:09:02;95411.88;;;4.38;100.00
12178;BME280;6152;48.728;9.256;2022-11-22T07:11:30;95410.97;;;4.39;100.00
12178;BME280;6152;48.728;9.256;2022-11-22T07:13:58;95412.63;;;4.40;100.00
12178;BME280;6152;48.728;9.256;2022-11-22T07:16:25;95416.94;;;4.40;100.00
12178;BME280;6152;48.728;9.256;2022-11-22T07:18:51;95409.31;;;4.38;100.00
12178;BME280;6152;48.728;9.256;2022-11-22T07:21:22;95417.78;;;4.40;100.00
12178;BME280;6152;48.728;9.256;2022-11-22T07:23:50;95415.09;;;4.42;100.00
12178;BME280;6152;48.728;9.256;2022-11-22T07:26:19;95418.41;;;4.44;100.00
12178;BME280;6152;48.728;9.256;2022-11-22T07:28:46;95431.16;;;4.45;100.00
12178;BME280;6152;48.728;9.256;2022-11-22T07:31:14;95426.00;;;4.45;100.00
12178;BME280;6152;48.728;9.256;2022-11-22T07:33:41;95435.50;;;4.45;100.00
12178;BME280;6152;48.728;9.256;2022-11-22T07:38:38;95435.41;;;4.46;100.00
12178;BME280;6152;48.728;9.256;2022-11-22T07:41:05;95438.63;;;4.50;100.00
12178;BME280;6152;48.728;9.256;2022-11-22T07:43:32;95438.22;;;4.56;100.00
12178;BME280;6152;48.728;9.256;2022-11-22T07:46:06;95445.03;;;4.57;100.00
12178;BME280;6152;48.728;9.256;2022-11-22T07:48:33;95448.13;;;4.62;100.00
12178;BME280;6152;48.728;9.256;2022-11-22T07:51:06;95454.94;;;4.63;100.00
12178;BME280;6152;48.728;9.256;2022-11-22T07:53:33;95452.28;;;4.65;100.00
12178;BME280;6152;48.728;9.256;2022-11-22T07:56:03;95448.59;;;4.69;100.00
12178;BME280;6152;48.728;9.256;2022-11-22T07:58:31;95445.06;;;4.70;100.00
12178;BME280;6152;48.728;9.256;2022-11-22T08:00:57;95460.16;;;4.76;100.00
12178;BME280;6152;48.728;9.256;2022-11-22T08:03:23;95457.38;;;4.79;100.00
12178;BME280;6152;48.728;9.256;2022-11-22T08:05:49;95460.66;;;4.81;100.00
12178;BME280;6152;48.728;9.256;2022-11-22T08:08:15;95455.22;;;4.85;100.00
12178;BME280;6152;48.728;9.256;2022-11-22T08:10:43;95453.34;;;4.87;100.00
12178;BME280;6152;48.728;9.256;2022-11-22T08:13:09;95460.78;;;4.92;100.00
12178;BME280;6152;48.728;9.256;2022-11-22T08:15:35;95459.06;;;4.92;100.00
12178;BME280;6152;48.728;9.256;2022-11-22T08:18:02;95464.00;;;4.95;100.00
12178;BME280;6152;48.728;9.256;2022-11-22T08:20:28;95469.88;;;4.97;100.00
12178;BME280;6152;48.728;9.256;2022-11-22T08:22:54;95467.00;;;5.02;100.00
12178;BME280;6152;48.728;9.256;2022-11-22T08:25:20;95465.13;;;5.04;100.00
12178;BME280;6152;48.728;9.256;2022-11-22T08:27:46;95455.38;;;5.09;100.00
12178;BME280;6152;48.728;9.256;2022-11-22T08:30:12;95455.88;;;5.14;100.00
12178;BME280;6152;48.728;9.256;2022-11-22T08:32:38;95458.78;;;5.22;100.00
12178;BME280;6152;48.728;9.256;2022-11-22T08:35:05;95451.75;;;5.24;100.00
12178;BME280;6152;48.728;9.256;2022-11-22T08:37:31;95450.44;;;5.31;100.00
12178;BME280;6152;48.728;9.256;2022-11-22T08:39:57;95454.25;;;5.38;100.00
12178;BME280;6152;48.728;9.256;2022-11-22T08:42:23;95449.41;;;5.46;100.00
12178;BME280;6152;48.728;9.256;2022-11-22T08:44:49;95447.66;;;5.59;100.00
12178;BME280;6152;48.728;9.256;2022-11-22T08:47:16;95452.00;;;5.72;100.00
12178;BME280;6152;48.728;9.256;2022-11-22T08:49:42;95445.97;;;5.84;100.00
12178;BME280;6152;48.728;9.256;2022-11-22T08:52:08;95440.94;;;5.95;100.00
12178;BME280;6152;48.728;9.256;2022-11-22T08:54:34;95435.88;;;6.06;100.00
12178;BME280;6152;48.728;9.256;2022-11-22T08:57:00;95444.09;;;6.11;100.00
12178;BME280;6152;48.728;9.256;2022-11-22T08:59:26;95435.53;;;6.23;100.00
12178;BME280;6152;48.728;9.256;2022-11-22T09:01:53;95440.03;;;6.32;100.00
12178;BME280;6152;48.728;9.256;2022-11-22T09:04:19;95432.56;;;6.40;100.00
12178;BME280;6152;48.728;9.256;2022-11-22T09:06:45;95429.75;;;6.43;100.00
12178;BME280;6152;48.728;9.256;2022-11-22T09:09:11;95421.78;;;6.46;100.00
12178;BME280;6152;48.728;9.256;2022-11-22T09:11:37;95429.69;;;6.56;100.00
12178;BME280;6152;48.728;9.256;2022-11-22T09:14:03;95426.50;;;6.52;100.00
12178;BME280;6152;48.728;9.256;2022-11-22T09:16:29;95425.88;;;6.62;100.00
12178;BME280;6152;48.728;9.256;2022-11-22T09:18:56;95436.91;;;6.64;100.00
12178;BME280;6152;48.728;9.256;2022-11-22T09:21:22;95427.41;;;6.64;100.00
12178;BME280;6152;48.728;9.256;2022-11-22T09:23:49;95432.94;;;6.71;100.00
12178;BME280;6152;48.728;9.256;2022-11-22T09:26:17;95438.50;;;6.77;100.00
12178;BME280;6152;48.728;9.256;2022-11-22T09:28:44;95451.56;;;6.76;100.00
12178;BME280;6152;48.728;9.256;2022-11-22T09:31:13;95449.53;;;6.79;100.00
12178;BME280;6152;48.728;9.256;2022-11-22T09:33:40;95457.50;;;6.76;100.00
12178;BME280;6152;48.728;9.256;2022-11-22T09:38:40;95476.38;;;6.66;100.00
12178;BME280;6152;48.728;9.256;2022-11-22T09:44:06;95480.25;;;6.84;100.00
12178;BME280;6152;48.728;9.256;2022-11-22T09:49:28;95487.59;;;7.01;100.00
12178;BME280;6152;48.728;9.256;2022-11-22T09:52:26;95488.75;;;6.97;100.00
12178;BME280;6152;48.728;9.256;2022-11-22T10:00:53;95490.56;;;6.84;100.00
12178;BME280;6152;48.728;9.256;2022-11-22T10:04:15;95494.75;;;6.74;100.00
12178;BME280;6152;48.728;9.256;2022-11-22T10:06:28;95499.47;;;6.80;100.00
12178;BME280;6152;48.728;9.256;2022-11-22T10:11:43;95513.78;;;6.73;100.00
12178;BME280;6152;48.728;9.256;2022-11-22T10:19:58;95511.66;;;6.90;100.00
12178;BME280;6152;48.728;9.256;2022-11-22T10:22:29;95503.78;;;6.92;100.00
12178;BME280;6152;48.728;9.256;2022-11-22T10:24:59;95511.53;;;6.92;100.00
12178;BME280;6152;48.728;9.256;2022-11-22T10:27:31;95516.88;;;6.78;100.00
12178;BME280;6152;48.728;9.256;2022-11-22T10:30:03;95519.94;;;6.83;100.00
12178;BME280;6152;48.728;9.256;2022-11-22T10:32:47;95515.00;;;6.80;100.00
12178;BME280;6152;48.728;9.256;2022-11-22T10:35:33;95523.25;;;6.85;100.00
12178;BME280;6152;48.728;9.256;2022-11-22T10:38:45;95518.75;;;6.76;100.00
12178;BME280;6152;48.728;9.256;2022-11-22T10:41:09;95521.00;;;6.80;100.00
12178;BME280;6152;48.728;9.256;2022-11-22T10:43:47;95522.13;;;6.76;100.00
12178;BME280;6152;48.728;9.256;2022-11-22T10:46:32;95517.19;;;6.73;100.00
12178;BME280;6152;48.728;9.256;2022-11-22T10:49:20;95520.38;;;6.77;100.00
12178;BME280;6152;48.728;9.256;2022-11-22T10:52:08;95522.75;;;6.80;100.00
12178;BME280;6152;48.728;9.256;2022-11-22T10:55:08;95525.25;;;6.81;100.00
12178;BME280;6152;48.728;9.256;2022-11-22T11:00:30;95525.19;;;6.94;100.00
12178;BME280;6152;48.728;9.256;2022-11-22T11:03:07;95527.81;;;7.05;100.00
12178;BME280;6152;48.728;9.256;2022-11-22T11:05:44;95525.16;;;7.18;100.00
12178;BME280;6152;48.728;9.256;2022-11-22T11:08:15;95524.75;;;7.24;100.00
12178;BME280;6152;48.728;9.256;2022-11-22T11:10:43;95524.34;;;7.17;100.00
12178;BME280;6152;48.728;9.256;2022-11-22T11:13:24;95526.22;;;7.15;100.00
12178;BME280;6152;48.728;9.256;2022-11-22T11:15:58;95521.75;;;7.17;100.00
12178;BME280;6152;48.728;9.256;2022-11-22T11:18:42;95518.97;;;7.20;100.00
12178;BME280;6152;48.728;9.256;2022-11-22T11:21:12;95518.75;;;7.23;100.00
12178;BME280;6152;48.728;9.256;2022-11-22T11:23:39;95519.25;;;7.39;100.00
12178;BME280;6152;48.728;9.256;2022-11-22T11:26:19;95509.00;;;7.27;100.00
12178;BME280;6152;48.728;9.256;2022-11-22T11:28:46;95507.75;;;7.43;100.00
12178;BME280;6152;48.728;9.256;2022-11-22T11:31:13;95501.97;;;7.40;100.00
12178;BME280;6152;48.728;9.256;2022-11-22T11:33:41;95498.13;;;7.56;100.00
12178;BME280;6152;48.728;9.256;2022-11-22T11:36:11;95502.25;;;7.59;100.00
12178;BME280;6152;48.728;9.256;2022-11-22T11:41:20;95493.00;;;7.90;100.00
12178;BME280;6152;48.728;9.256;2022-11-22T11:43:48;95486.16;;;8.00;100.00
12178;BME280;6152;48.728;9.256;2022-11-22T11:46:18;95488.88;;;8.21;100.00
12178;BME280;6152;48.728;9.256;2022-11-22T11:48:45;95484.91;;;8.17;100.00
12178;BME280;6152;48.728;9.256;2022-11-22T11:51:24;95472.66;;;8.19;100.00
12178;BME280;6152;48.728;9.256;2022-11-22T11:54:02;95481.81;;;8.56;100.00
12178;BME280;6152;48.728;9.256;2022-11-22T11:56:48;95476.97;;;8.62;100.00
12178;BME280;6152;48.728;9.256;2022-11-22T11:59:18;95470.00;;;9.06;100.00
12178;BME280;6152;48.728;9.256;2022-11-22T12:02:00;95476.78;;;9.18;100.00
12178;BME280;6152;48.728;9.256;2022-11-22T12:04:31;95458.41;;;8.89;100.00
12178;BME280;6152;48.728;9.256;2022-11-22T12:07:02;95457.00;;;8.85;100.00
12178;BME280;6152;48.728;9.256;2022-11-22T12:09:42;95457.06;;;8.95;100.00
12178;BME280;6152;48.728;9.256;2022-11-22T12:15:25;95456.25;;;9.26;100.00
12178;BME280;6152;48.728;9.256;2022-11-22T12:20:46;95439.53;;;9.40;100.00
12178;BME280;6152;48.728;9.256;2022-11-22T12:23:23;95445.31;;;9.74;100.00
12178;BME280;6152;48.728;9.256;2022-11-22T12:25:52;95430.50;;;9.85;100.00
12178;BME280;6152;48.728;9.256;2022-11-22T12:28:22;95430.13;;;10.20;100.00
12178;BME280;6152;48.728;9.256;2022-11-22T12:31:18;95434.22;;;9.92;100.00
12178;BME280;6152;48.728;9.256;2022-11-22T12:33:56;95424.69;;;10.02;100.00
12178;BME280;6152;48.728;9.256;2022-11-22T12:39:36;95426.00;;;9.97;98.94
12178;BME280;6152;48.728;9.256;2022-11-22T12:44:41;95421.88;;;9.85;98.59
12178;BME280;6152;48.728;9.256;2022-11-22T12:47:12;95411.69;;;10.42;96.76
12178;BME280;6152;48.728;9.256;2022-11-22T12:50:02;95414.47;;;10.60;91.71
12178;BME280;6152;48.728;9.256;2022-11-22T12:52:54;95416.22;;;10.50;87.36
12178;BME280;6152;48.728;9.256;2022-11-22T12:55:29;95417.44;;;10.06;89.20
12178;BME280;6152;48.728;9.256;2022-11-22T12:58:17;95425.59;;;9.61;90.27
12178;BME280;6152;48.728;9.256;2022-11-22T13:06:47;95412.31;;;9.34;100.00
12178;BME280;6152;48.728;9.256;2022-11-22T13:09:21;95402.59;;;9.87;94.95
12178;BME280;6152;48.728;9.256;2022-11-22T13:14:37;95398.69;;;9.93;92.13
12178;BME280;6152;48.728;9.256;2022-11-22T13:17:08;95401.84;;;10.06;92.94
12178;BME280;6152;48.728;9.256;2022-11-22T13:19:53;95397.59;;;9.95;91.47
12178;BME280;6152;48.728;9.256;2022-11-22T13:25:39;95405.31;;;9.55;95.32
12178;BME280;6152;48.728;9.256;2022-11-22T13:28:20;95400.03;;;9.36;99.43
12178;BME280;6152;48.728;9.256;2022-11-22T13:33:39;95413.31;;;8.70;100.00
12178;BME280;6152;48.728;9.256;2022-11-22T13:39:00;95418.44;;;8.49;100.00
12178;BME280;6152;48.728;9.256;2022-11-22T13:41:37;95414.38;;;8.13;100.00
12178;BME280;6152;48.728;9.256;2022-11-22T13:44:33;95409.44;;;7.99;100.00
12178;BME280;6152;48.728;9.256;2022-11-22T13:49:43;95413.91;;;7.86;100.00
12178;BME280;6152;48.728;9.256;2022-11-22T13:54:58;95421.69;;;7.75;100.00
12178;BME280;6152;48.728;9.256;2022-11-22T13:57:36;95430.13;;;7.66;100.00
12178;BME280;6152;48.728;9.256;2022-11-22T14:02:53;95433.69;;;7.65;100.00
12178;BME280;6152;48.728;9.256;2022-11-22T14:05:33;95437.41;;;7.49;100.00
12178;BME280;6152;48.728;9.256;2022-11-22T14:08:03;95438.47;;;7.47;100.00
12178;BME280;6152;48.728;9.256;2022-11-22T14:27:11;95429.00;;;7.13;100.00
12178;BME280;6152;48.728;9.256;2022-11-22T14:32:57;95422.75;;;7.15;100.00
12178;BME280;6152;48.728;9.256;2022-11-22T14:35:35;95428.63;;;7.06;100.00
12178;BME280;6152;48.728;9.256;2022-11-22T14:40:50;95429.50;;;6.94;100.00
12178;BME280;6152;48.728;9.256;2022-11-22T14:43:31;95440.06;;;6.91;100.00
12178;BME280;6152;48.728;9.256;2022-11-22T14:46:11;95439.59;;;6.86;100.00
12178;BME280;6152;48.728;9.256;2022-11-22T14:48:52;95447.56;;;6.83;100.00
12178;BME280;6152;48.728;9.256;2022-11-22T14:51:26;95441.91;;;6.78;100.00
12178;BME280;6152;48.728;9.256;2022-11-22T14:53:58;95443.28;;;6.71;100.00
12178;BME280;6152;48.728;9.256;2022-11-22T14:56:28;95440.19;;;6.66;100.00
12178;BME280;6152;48.728;9.256;2022-11-22T15:12:04;95453.50;;;6.48;100.00